createdAt,value
2023-04-07T00:00:50.609Z,101243.09
2023-04-07T00:03:19.367Z,101224.28
2023-04-07T00:05:47.977Z,101234.41
2023-04-07T00:08:17.838Z,101227.53
2023-04-07T00:10:46.293Z,101235.59
2023-04-07T00:13:14.631Z,101230.06
2023-04-07T00:15:43.162Z,101231.47
2023-04-07T00:18:11.649Z,101236.09
2023-04-07T00:20:40.220Z,101234.09
2023-04-07T00:23:08.735Z,101242.56
2023-04-07T00:25:38.562Z,101239.72
2023-04-07T00:28:06.938Z,101238.00
2023-04-07T00:30:35.424Z,101236.31
2023-04-07T00:33:03.889Z,101230.44
2023-04-07T00:35:32.466Z,101227.88
2023-04-07T00:38:00.915Z,101229.97
2023-04-07T00:40:29.765Z,101225.22
2023-04-07T00:42:59.628Z,101218.63
2023-04-07T00:45:28.150Z,101212.66
2023-04-07T00:47:58.916Z,101210.13
2023-04-07T00:50:27.816Z,101181.84
2023-04-07T00:52:57.167Z,101205.00
2023-04-07T00:55:26.706Z,101199.13
2023-04-07T00:57:57.145Z,101207.34
2023-04-07T01:00:29.713Z,101211.34
2023-04-07T01:03:03.143Z,101176.72
2023-04-07T01:05:40.527Z,101201.41
2023-04-07T01:08:16.246Z,101196.88
2023-04-07T01:10:51.463Z,101196.31
2023-04-07T01:13:28.957Z,101190.09
2023-04-07T01:16:16.882Z,101180.72
2023-04-07T01:18:55.725Z,101190.81
2023-04-07T01:21:29.119Z,101178.97
2023-04-07T01:24:26.879Z,101184.59
2023-04-07T01:27:01.338Z,101181.34
2023-04-07T01:29:36.751Z,101188.34
2023-04-07T01:32:09.107Z,101189.66
2023-04-07T01:34:39.935Z,101188.88
2023-04-07T01:37:09.315Z,101185.47
2023-04-07T01:39:39.852Z,101182.03
2023-04-07T01:42:09.572Z,101177.19
2023-04-07T01:44:41.000Z,101182.31
2023-04-07T01:47:09.898Z,101174.94
2023-04-07T01:49:39.227Z,101150.81
2023-04-07T01:52:09.326Z,101172.38
2023-04-07T01:54:38.929Z,101166.91
2023-04-07T01:57:07.371Z,101175.53
2023-04-07T01:59:35.802Z,101167.41
2023-04-07T02:02:07.729Z,101165.59
2023-04-07T02:04:41.803Z,101167.41
2023-04-07T02:07:23.591Z,101167.09
2023-04-07T02:09:57.891Z,101150.66
2023-04-07T02:12:28.735Z,101171.72
2023-04-07T02:15:12.749Z,101170.47
2023-04-07T02:17:49.294Z,101168.19
2023-04-07T02:20:18.854Z,101172.16
2023-04-07T02:22:47.990Z,101162.88
2023-04-07T02:25:24.112Z,101176.28
2023-04-07T02:27:52.568Z,101169.38
2023-04-07T02:30:21.608Z,101174.03
2023-04-07T02:32:51.689Z,101175.16
2023-04-07T02:35:20.587Z,101174.56
2023-04-07T02:37:49.160Z,101172.19
2023-04-07T02:40:17.841Z,101173.22
2023-04-07T02:42:46.491Z,101174.06
2023-04-07T02:45:15.004Z,101086.31
2023-04-07T02:47:43.503Z,101174.06
2023-04-07T02:50:13.635Z,101170.41
2023-04-07T02:52:42.168Z,101174.75
2023-04-07T02:55:14.478Z,101159.72
2023-04-07T02:57:43.249Z,101165.59
2023-04-07T03:00:21.929Z,101172.09
2023-04-07T03:03:09.436Z,101164.78
2023-04-07T03:05:41.952Z,101168.78
2023-04-07T03:08:13.044Z,101163.50
2023-04-07T03:10:42.241Z,101139.41
2023-04-07T03:13:12.976Z,101150.63
2023-04-07T03:15:41.683Z,101148.94
2023-04-07T03:18:11.554Z,101113.75
2023-04-07T03:20:42.695Z,101148.13
2023-04-07T03:23:13.260Z,101145.50
2023-04-07T03:25:42.134Z,101128.44
2023-04-07T03:28:12.728Z,101145.25
2023-04-07T03:30:42.042Z,101140.16
2023-04-07T03:33:11.349Z,101135.22
2023-04-07T03:35:40.062Z,101130.72
2023-04-07T03:38:11.384Z,101084.75
2023-04-07T03:40:39.824Z,101131.66
2023-04-07T03:43:12.681Z,101127.91
2023-04-07T03:45:41.839Z,101128.75
2023-04-07T03:48:12.431Z,101121.25
2023-04-07T03:50:50.270Z,101116.91
2023-04-07T03:53:22.140Z,101121.59
2023-04-07T03:55:52.340Z,101122.97
2023-04-07T03:58:41.691Z,101117.03
2023-04-07T04:01:14.960Z,101121.09
2023-04-07T04:03:45.833Z,101121.94
2023-04-07T04:06:25.065Z,101123.25
2023-04-07T04:08:57.303Z,101124.53
2023-04-07T04:11:27.455Z,101128.09
2023-04-07T04:14:00.153Z,101119.59
2023-04-07T04:16:29.150Z,101124.00
2023-04-07T04:19:00.355Z,101119.41
2023-04-07T04:21:32.062Z,101119.59
2023-04-07T04:24:01.950Z,101120.53
2023-04-07T04:26:31.608Z,101122.47
2023-04-07T04:29:06.519Z,101125.03
2023-04-07T04:31:35.225Z,101122.06
2023-04-07T04:34:03.854Z,101130.91
2023-04-07T04:36:32.903Z,101126.22
2023-04-07T04:39:07.251Z,101122.66
2023-04-07T04:41:37.102Z,101128.53
2023-04-07T04:44:06.542Z,101126.06
2023-04-07T04:46:36.287Z,101115.75
2023-04-07T04:49:04.896Z,101122.31
2023-04-07T04:51:33.504Z,101126.91
2023-04-07T04:54:09.995Z,101123.19
2023-04-07T04:56:39.764Z,101123.00
2023-04-07T04:59:08.207Z,101086.72
2023-04-07T05:01:45.748Z,101119.81
2023-04-07T05:04:18.056Z,101119.91
2023-04-07T05:06:53.853Z,101111.22
2023-04-07T05:09:28.698Z,101103.50
2023-04-07T05:11:58.017Z,101108.16
2023-04-07T05:14:27.513Z,101109.88
2023-04-07T05:17:02.074Z,101110.81
2023-04-07T05:19:31.068Z,101109.09
2023-04-07T05:22:06.007Z,101110.97
2023-04-07T05:24:43.839Z,101112.59
2023-04-07T05:27:12.444Z,101111.75
2023-04-07T05:29:41.863Z,101114.38
2023-04-07T05:32:17.577Z,101123.16
2023-04-07T05:34:46.293Z,101117.88
2023-04-07T05:37:15.838Z,101118.28
2023-04-07T05:39:46.564Z,101117.25
2023-04-07T05:42:16.101Z,101127.91
2023-04-07T05:44:47.463Z,101123.31
2023-04-07T05:47:16.470Z,101128.94
2023-04-07T05:49:47.481Z,101127.09
2023-04-07T05:52:16.401Z,101121.47
2023-04-07T05:54:52.229Z,101124.44
2023-04-07T05:57:22.868Z,101133.13
2023-04-07T05:59:53.027Z,101119.59
2023-04-07T06:02:21.711Z,101120.69
2023-04-07T06:04:50.231Z,101128.00
2023-04-07T06:07:20.840Z,101118.03
2023-04-07T06:09:49.255Z,101123.16
2023-04-07T06:12:19.052Z,101124.16
2023-04-07T06:14:52.972Z,101133.75
2023-04-07T06:17:21.621Z,101130.41
2023-04-07T06:19:50.053Z,101129.13
2023-04-07T06:22:18.585Z,101128.78
2023-04-07T06:24:47.030Z,101132.97
2023-04-07T06:27:16.567Z,101137.09
2023-04-07T06:29:46.394Z,101133.56
2023-04-07T06:32:15.010Z,101141.59
2023-04-07T06:34:43.509Z,101137.84
2023-04-07T06:37:12.173Z,101147.84
2023-04-07T06:39:40.638Z,101141.56
2023-04-07T06:42:09.068Z,101137.44
2023-04-07T06:44:41.659Z,101142.13
2023-04-07T06:47:11.768Z,101140.03
2023-04-07T06:49:40.128Z,101138.22
2023-04-07T06:52:08.557Z,101138.19
2023-04-07T06:54:36.944Z,101144.41
2023-04-07T06:57:06.932Z,101136.38
2023-04-07T06:59:35.919Z,101140.44
2023-04-07T07:02:04.590Z,101134.38
2023-04-07T07:04:34.645Z,101140.06
2023-04-07T07:07:03.445Z,101132.63
2023-04-07T07:09:31.937Z,101140.91
2023-04-07T07:12:04.318Z,101140.13
2023-04-07T07:14:32.901Z,101139.47
2023-04-07T07:17:01.260Z,101138.47
2023-04-07T07:19:29.702Z,101133.91
2023-04-07T07:21:59.491Z,101132.22
2023-04-07T07:24:29.325Z,101129.16
2023-04-07T07:26:58.039Z,101125.53
2023-04-07T07:29:27.351Z,101125.44
2023-04-07T07:31:56.244Z,101131.34
2023-04-07T07:34:25.782Z,101125.09
2023-04-07T07:36:55.238Z,101128.09
2023-04-07T07:39:25.012Z,101126.88
2023-04-07T07:41:55.494Z,101121.03
2023-04-07T07:44:24.012Z,101122.91
2023-04-07T07:46:52.495Z,101124.81
2023-04-07T07:49:21.538Z,101119.75
2023-04-07T07:51:50.213Z,101117.81
2023-04-07T07:54:18.686Z,101110.19
2023-04-07T07:56:48.524Z,101114.50
2023-04-07T07:59:17.828Z,101108.06
2023-04-07T08:01:46.454Z,101105.16
2023-04-07T08:04:15.112Z,101095.72
2023-04-07T08:06:43.628Z,101098.47
2023-04-07T08:09:12.124Z,101089.25
2023-04-07T08:11:40.607Z,101093.00
2023-04-07T08:14:10.429Z,101094.03
2023-04-07T08:16:39.367Z,101098.44
2023-04-07T08:19:08.049Z,101094.34
2023-04-07T08:21:36.521Z,101099.94
2023-04-07T08:24:05.648Z,101096.59
2023-04-07T08:26:34.538Z,101090.28
2023-04-07T08:29:02.940Z,101094.19
2023-04-07T08:31:32.819Z,101091.88
2023-04-07T08:34:01.247Z,101087.34
2023-04-07T08:36:30.343Z,101081.44
2023-04-07T08:39:02.118Z,101091.06
2023-04-07T08:41:38.053Z,101086.69
2023-04-07T08:44:08.253Z,101078.44
2023-04-07T08:46:40.712Z,101080.63
2023-04-07T08:49:11.367Z,101082.25
2023-04-07T08:51:42.904Z,101079.19
2023-04-07T08:54:14.005Z,101083.31
2023-04-07T08:56:43.691Z,101089.69
2023-04-07T08:59:13.390Z,101072.41
2023-04-07T09:01:43.739Z,101069.84
2023-04-07T09:04:12.418Z,101063.84
2023-04-07T09:06:41.060Z,101070.66
2023-04-07T09:09:09.734Z,101056.84
2023-04-07T09:11:41.165Z,101056.50
2023-04-07T09:14:09.642Z,101050.84
2023-04-07T09:16:38.319Z,101052.28
2023-04-07T09:19:09.715Z,101042.06
2023-04-07T09:21:50.070Z,101039.16
2023-04-07T09:24:25.893Z,101040.28
2023-04-07T09:27:11.342Z,100988.88
2023-04-07T09:29:40.228Z,101036.50
2023-04-07T09:32:09.083Z,101034.50
2023-04-07T09:34:41.221Z,101035.63
2023-04-07T09:37:10.815Z,101028.00
2023-04-07T09:39:51.585Z,101014.38
2023-04-07T09:42:20.019Z,101023.41
2023-04-07T09:44:49.389Z,101027.06
2023-04-07T09:47:18.163Z,101028.94
2023-04-07T09:49:56.079Z,101025.25
2023-04-07T09:52:27.551Z,101020.88
2023-04-07T09:54:57.783Z,101007.72
2023-04-07T09:57:26.701Z,101022.44
2023-04-07T09:59:56.092Z,101024.03
2023-04-07T10:02:27.019Z,101023.34
2023-04-07T10:04:57.046Z,101015.72
2023-04-07T10:07:25.727Z,101012.91
2023-04-07T10:09:54.207Z,101008.81
2023-04-07T10:12:24.780Z,101003.88
2023-04-07T10:14:53.503Z,100997.69
2023-04-07T10:17:23.406Z,100994.66
2023-04-07T10:19:52.746Z,100994.56
2023-04-07T10:22:23.130Z,100987.59
2023-04-07T10:24:57.633Z,100962.19
2023-04-07T10:27:33.268Z,100976.78
2023-04-07T10:30:04.149Z,100975.00
2023-04-07T10:32:32.832Z,100974.69
2023-04-07T10:35:02.474Z,100977.66
2023-04-07T10:37:34.499Z,100969.19
2023-04-07T10:40:30.856Z,100960.47
2023-04-07T10:42:59.853Z,100956.59
2023-04-07T10:45:54.646Z,100952.88
2023-04-07T10:48:23.681Z,100944.56
2023-04-07T10:51:15.609Z,100937.03
2023-04-07T10:54:21.152Z,100936.00
2023-04-07T10:57:12.043Z,100928.25
2023-04-07T10:59:46.967Z,100900.44
2023-04-07T11:02:37.112Z,100915.72
2023-04-07T11:05:06.073Z,100908.41
2023-04-07T11:07:50.136Z,100915.72
2023-04-07T11:10:19.552Z,100917.41
2023-04-07T11:13:06.976Z,100902.34
2023-04-07T11:15:39.408Z,100904.44
2023-04-07T11:18:18.212Z,100900.66
2023-04-07T11:20:49.151Z,100900.59
2023-04-07T11:23:19.437Z,100861.28
2023-04-07T11:25:49.468Z,100895.31
2023-04-07T11:28:20.094Z,100901.13
2023-04-07T11:30:52.088Z,100894.84
2023-04-07T11:33:22.432Z,100895.47
2023-04-07T11:35:52.424Z,100877.00
2023-04-07T11:38:21.344Z,100878.31
2023-04-07T11:40:49.797Z,100878.34
2023-04-07T11:43:21.801Z,100876.66
2023-04-07T11:46:06.755Z,100876.38
2023-04-07T11:48:36.750Z,100872.97
2023-04-07T11:51:06.025Z,100866.84
2023-04-07T11:53:36.001Z,100864.25
2023-04-07T11:56:07.726Z,100863.63
2023-04-07T11:58:37.840Z,100858.50
2023-04-07T12:01:09.167Z,100870.66
2023-04-07T12:03:39.139Z,100860.88
2023-04-07T12:06:08.011Z,100855.09
2023-04-07T12:08:41.374Z,100860.94
2023-04-07T12:11:10.669Z,100847.03
2023-04-07T12:13:41.563Z,100860.81
2023-04-07T12:16:10.049Z,100847.94
2023-04-07T12:18:38.442Z,100849.97
2023-04-07T12:21:06.975Z,100853.31
2023-04-07T12:23:35.244Z,100844.47
2023-04-07T12:26:03.830Z,100848.91
2023-04-07T12:28:32.258Z,100847.19
2023-04-07T12:31:02.051Z,100846.50
2023-04-07T12:33:30.456Z,100844.22
2023-04-07T12:35:58.964Z,100832.28
2023-04-07T12:38:27.426Z,100838.97
2023-04-07T12:40:55.858Z,100832.66
2023-04-07T12:43:24.243Z,100825.22
2023-04-07T12:45:53.369Z,100807.00
2023-04-07T12:48:23.800Z,100826.97
2023-04-07T12:50:52.336Z,100824.84
2023-04-07T12:53:20.689Z,100821.84
2023-04-07T12:55:50.549Z,100809.72
2023-04-07T12:58:19.264Z,100818.63
2023-04-07T13:00:48.661Z,100815.47
2023-04-07T13:03:17.863Z,100809.81
2023-04-07T13:05:48.691Z,100808.81
2023-04-07T13:08:17.037Z,100807.00
2023-04-07T13:10:45.450Z,100797.41
2023-04-07T13:13:13.862Z,100782.31
2023-04-07T13:15:42.679Z,100790.13
2023-04-07T13:18:11.518Z,100794.41
2023-04-07T13:20:40.330Z,100784.28
2023-04-07T13:23:10.463Z,100781.03
2023-04-07T13:25:39.003Z,100779.56
2023-04-07T13:28:07.796Z,100778.53
2023-04-07T13:30:36.515Z,100773.94
2023-04-07T13:33:06.082Z,100773.09
2023-04-07T13:35:36.154Z,100771.59
2023-04-07T13:38:05.067Z,100766.94
2023-04-07T13:40:34.874Z,100768.16
2023-04-07T13:43:03.313Z,100768.94
2023-04-07T13:45:31.776Z,100763.94
2023-04-07T13:48:00.395Z,100758.69
2023-04-07T13:50:29.144Z,100761.16
2023-04-07T13:52:57.635Z,100759.28
2023-04-07T13:55:26.160Z,100747.47
2023-04-07T13:57:55.952Z,100744.41
2023-04-07T14:00:24.471Z,100748.13
2023-04-07T14:02:53.000Z,100739.28
2023-04-07T14:05:21.569Z,100738.97
2023-04-07T14:07:51.199Z,100730.72
2023-04-07T14:10:19.903Z,100731.19
2023-04-07T14:12:48.705Z,100730.50
2023-04-07T14:15:18.591Z,100734.22
2023-04-07T14:17:47.187Z,100730.91
2023-04-07T14:20:15.626Z,100730.59
2023-04-07T14:22:44.578Z,100730.06
2023-04-07T14:25:13.042Z,100732.94
2023-04-07T14:27:41.572Z,100726.66
2023-04-07T14:30:11.273Z,100717.03
2023-04-07T14:32:41.086Z,100721.72
2023-04-07T14:35:10.336Z,100719.00
2023-04-07T14:37:39.316Z,100717.19
2023-04-07T14:40:09.000Z,100712.94
2023-04-07T14:42:38.076Z,100707.59
2023-04-07T14:45:07.526Z,100710.31
2023-04-07T14:47:36.097Z,100715.00
2023-04-07T14:50:06.516Z,100713.81
2023-04-07T14:52:34.972Z,100717.97
2023-04-07T14:55:03.434Z,100714.00
2023-04-07T14:57:31.827Z,100713.00
2023-04-07T15:00:00.216Z,100721.16
2023-04-07T15:02:29.671Z,100722.88
2023-04-07T15:04:58.239Z,100707.84
2023-04-07T15:07:28.188Z,100706.63
2023-04-07T15:09:59.724Z,100707.50
2023-04-07T15:12:31.600Z,100685.84
2023-04-07T15:15:00.952Z,100716.72
2023-04-07T15:17:42.349Z,100711.44
2023-04-07T15:20:13.269Z,100708.06
2023-04-07T15:22:43.322Z,100716.78
2023-04-07T15:25:11.767Z,100713.56
2023-04-07T15:27:40.352Z,100719.63
2023-04-07T15:30:09.983Z,100718.41
2023-04-07T15:32:38.561Z,100716.13
2023-04-07T15:35:07.752Z,100715.72
2023-04-07T15:37:36.267Z,100716.56
2023-04-07T15:40:06.994Z,100717.78
2023-04-07T15:42:41.740Z,100723.22
2023-04-07T15:45:11.413Z,100729.56
2023-04-07T15:47:39.961Z,100724.72
2023-04-07T15:50:09.908Z,100731.19
2023-04-07T15:52:38.440Z,100730.34
2023-04-07T15:55:08.981Z,100728.94
2023-04-07T15:57:37.410Z,100733.41
2023-04-07T16:00:08.380Z,100729.47
2023-04-07T16:02:36.953Z,100740.03
2023-04-07T16:05:05.677Z,100739.84
2023-04-07T16:07:34.117Z,100747.63
2023-04-07T16:10:02.961Z,100750.00
2023-04-07T16:12:34.533Z,100746.50
2023-04-07T16:15:03.122Z,100757.00
2023-04-07T16:17:31.617Z,100758.69
2023-04-07T16:20:00.118Z,100756.81
2023-04-07T16:22:28.464Z,100759.81
2023-04-07T16:24:56.939Z,100766.91
2023-04-07T16:27:25.573Z,100769.00
2023-04-07T16:29:55.380Z,100770.03
2023-04-07T16:32:24.882Z,100773.59
2023-04-07T16:34:53.418Z,100774.22
2023-04-07T16:37:22.782Z,100770.25
2023-04-07T16:39:51.292Z,100780.28
2023-04-07T16:42:19.708Z,100777.41
2023-04-07T16:44:48.087Z,100768.63
2023-04-07T16:47:17.952Z,100779.06
2023-04-07T16:49:46.512Z,100782.00
2023-04-07T16:52:14.921Z,100782.41
2023-04-07T16:54:43.823Z,100784.84
2023-04-07T16:57:12.499Z,100779.84
2023-04-07T16:59:41.040Z,100752.25
2023-04-07T17:02:11.589Z,100793.63
2023-04-07T17:04:41.996Z,100792.09
2023-04-07T17:07:10.992Z,100805.03
2023-04-07T17:09:39.529Z,100809.97
2023-04-07T17:12:09.349Z,100804.25
2023-04-07T17:14:38.361Z,100810.41
2023-04-07T17:17:07.775Z,100820.16
2023-04-07T17:19:36.962Z,100816.13
2023-04-07T17:22:06.854Z,100822.13
2023-04-07T17:24:35.432Z,100818.25
2023-04-07T17:27:03.874Z,100802.06
2023-04-07T17:29:33.788Z,100830.44
2023-04-07T17:32:02.987Z,100832.81
2023-04-07T17:34:31.828Z,100840.47
2023-04-07T17:37:00.651Z,100841.47
2023-04-07T17:39:30.602Z,100848.84
2023-04-07T17:41:59.039Z,100848.78
2023-04-07T17:44:27.883Z,100860.13
2023-04-07T17:46:56.487Z,100857.34
2023-04-07T17:49:25.250Z,100868.28
2023-04-07T17:51:54.165Z,100866.28
2023-04-07T17:54:26.192Z,100882.78
2023-04-07T17:56:56.553Z,100885.50
2023-04-07T17:59:25.431Z,100883.44
2023-04-07T18:01:54.082Z,100889.22
2023-04-07T18:04:23.433Z,100887.91
2023-04-07T18:06:52.031Z,100891.47
2023-04-07T18:09:20.727Z,100906.53
2023-04-07T18:11:49.436Z,100909.38
2023-04-07T18:14:19.770Z,100906.06
2023-04-07T18:16:48.750Z,100918.16
2023-04-07T18:19:17.724Z,100919.75
2023-04-07T18:21:46.132Z,100924.38
2023-04-07T18:24:14.482Z,100932.91
2023-04-07T18:26:44.559Z,100932.81
2023-04-07T18:29:14.946Z,100938.09
2023-04-07T18:31:47.349Z,100939.31
2023-04-07T18:34:15.898Z,100941.25
2023-04-07T18:36:44.359Z,100938.78
2023-04-07T18:39:13.590Z,100941.38
2023-04-07T18:41:44.863Z,100947.84
2023-04-07T18:44:13.395Z,100944.69
2023-04-07T18:46:41.959Z,100941.03
2023-04-07T18:49:11.864Z,100946.81
2023-04-07T18:51:41.774Z,100959.47
2023-04-07T18:54:11.209Z,100957.66
2023-04-07T18:56:39.990Z,100965.56
2023-04-07T18:59:08.578Z,100974.69
2023-04-07T19:01:38.081Z,100983.28
2023-04-07T19:04:06.842Z,100987.38
2023-04-07T19:06:37.486Z,100883.38
2023-04-07T19:09:06.801Z,100999.47
2023-04-07T19:11:36.134Z,100991.84
2023-04-07T19:14:06.133Z,100992.53
2023-04-07T19:16:36.082Z,100998.97
2023-04-07T19:19:05.556Z,100999.00
2023-04-07T19:21:34.357Z,101010.59
2023-04-07T19:24:04.421Z,101011.59
2023-04-07T19:26:33.924Z,101014.97
2023-04-07T19:29:03.581Z,101018.78
2023-04-07T19:31:32.830Z,101021.78
2023-04-07T19:34:01.528Z,101035.84
2023-04-07T19:36:30.200Z,101030.25
2023-04-07T19:39:00.305Z,101033.91
2023-04-07T19:41:31.586Z,101047.16
2023-04-07T19:44:00.161Z,101035.72
2023-04-07T19:46:29.182Z,101049.34
2023-04-07T19:48:57.830Z,101050.50
2023-04-07T19:51:26.532Z,101049.63
2023-04-07T19:53:55.076Z,101054.84
2023-04-07T19:56:23.698Z,101056.31
2023-04-07T19:58:53.568Z,101049.56
2023-04-07T20:01:22.063Z,101060.47
2023-04-07T20:03:50.632Z,101053.72
2023-04-07T20:06:20.913Z,101062.59
2023-04-07T20:08:51.178Z,101062.38
2023-04-07T20:11:20.121Z,101075.28
2023-04-07T20:13:49.677Z,101076.06
2023-04-07T20:16:19.867Z,101072.78
2023-04-07T20:18:49.295Z,101072.53
2023-04-07T20:21:18.641Z,101074.31
2023-04-07T20:23:47.361Z,101075.94
2023-04-07T20:26:15.772Z,101075.56
2023-04-07T20:28:44.357Z,101074.47
2023-04-07T20:31:13.293Z,101080.16
2023-04-07T20:33:43.616Z,101084.13
2023-04-07T20:36:14.384Z,101087.28
2023-04-07T20:38:44.638Z,101045.56
2023-04-07T20:41:14.128Z,101080.69
2023-04-07T20:43:42.829Z,101075.09
2023-04-07T20:46:12.944Z,101078.81
2023-04-07T20:48:43.366Z,101078.28
2023-04-07T20:51:12.381Z,101077.22
2023-04-07T20:53:41.262Z,101082.19
2023-04-07T20:56:11.692Z,101085.44
2023-04-07T20:58:41.540Z,101086.75
2023-04-07T21:01:10.027Z,101094.38
2023-04-07T21:03:39.186Z,101071.38
2023-04-07T21:06:09.326Z,101094.81
2023-04-07T21:08:37.775Z,101094.28
2023-04-07T21:11:06.318Z,101099.25
2023-04-07T21:13:34.890Z,101102.53
2023-04-07T21:16:05.035Z,101101.00
2023-04-07T21:18:33.727Z,101102.41
2023-04-07T21:21:03.653Z,101102.28
2023-04-07T21:23:33.914Z,101092.00
2023-04-07T21:26:03.075Z,101104.81
2023-04-07T21:28:31.588Z,101104.94
2023-04-07T21:31:01.446Z,101106.63
2023-04-07T21:33:30.124Z,101107.75
2023-04-07T21:35:59.637Z,101086.84
2023-04-07T21:38:31.261Z,101101.03
2023-04-07T21:41:02.296Z,101084.56
2023-04-07T21:43:31.331Z,101104.38
2023-04-07T21:46:00.949Z,101101.00
2023-04-07T21:48:32.524Z,101107.47
2023-04-07T21:51:01.328Z,101114.81
2023-04-07T21:53:29.859Z,101109.34
2023-04-07T21:55:58.494Z,101111.78
2023-04-07T21:58:28.580Z,101111.81
2023-04-07T22:00:57.102Z,101114.78
2023-04-07T22:03:25.839Z,101119.16
2023-04-07T22:05:54.645Z,101121.28
2023-04-07T22:08:23.090Z,101126.63
2023-04-07T22:10:51.650Z,101014.16
2023-04-07T22:13:20.207Z,101121.28
2023-04-07T22:15:50.370Z,101131.72
2023-04-07T22:18:20.824Z,101125.66
2023-04-07T22:20:50.838Z,101124.94
2023-04-07T22:23:19.257Z,101121.81
2023-04-07T22:25:49.249Z,101123.78
2023-04-07T22:28:18.173Z,101118.72
2023-04-07T22:30:46.705Z,101126.03
2023-04-07T22:33:16.548Z,101119.97
2023-04-07T22:35:44.964Z,101125.59
2023-04-07T22:38:13.717Z,101132.91
2023-04-07T22:40:42.166Z,101128.66
2023-04-07T22:43:10.618Z,101134.00
2023-04-07T22:45:39.128Z,101136.81
2023-04-07T22:48:07.575Z,101135.97
2023-04-07T22:50:37.647Z,101135.97
2023-04-07T22:53:07.425Z,101142.72
2023-04-07T22:55:36.324Z,101031.50
2023-04-07T22:58:04.707Z,101149.56
2023-04-07T23:00:33.735Z,101149.03
2023-04-07T23:03:02.382Z,101149.03
2023-04-07T23:05:30.939Z,101147.53
2023-04-07T23:08:00.775Z,101152.09
2023-04-07T23:10:29.174Z,101148.97
2023-04-07T23:12:57.586Z,101158.50
2023-04-07T23:15:27.358Z,101151.59
2023-04-07T23:17:56.736Z,101154.00
2023-04-07T23:20:25.175Z,101152.88
2023-04-07T23:22:53.567Z,101158.94
2023-04-07T23:25:23.682Z,101161.34
2023-04-07T23:27:52.175Z,101160.38
2023-04-07T23:30:20.739Z,101167.88
2023-04-07T23:32:49.208Z,101158.88
2023-04-07T23:35:17.793Z,101166.72
2023-04-07T23:37:46.279Z,101166.59
2023-04-07T23:40:16.335Z,101170.97
2023-04-07T23:42:46.242Z,101170.81
2023-04-07T23:45:14.797Z,101164.63
2023-04-07T23:47:43.288Z,101169.97
2023-04-07T23:50:12.170Z,101165.34
2023-04-07T23:52:41.133Z,101166.31
2023-04-07T23:55:10.417Z,101167.03
2023-04-07T23:57:39.821Z,101167.88
